createdAt,value
2022-08-22T00:01:14.795Z,49.53
2022-08-22T00:04:05.824Z,49.52
2022-08-22T00:06:54.193Z,49.52
2022-08-22T00:09:20.674Z,49.52
2022-08-22T00:12:14.126Z,49.50
2022-08-22T00:15:42.063Z,49.47
2022-08-22T00:18:13.753Z,49.45
2022-08-22T00:20:41.793Z,49.46
2022-08-22T00:23:25.620Z,49.46
2022-08-22T00:26:06.869Z,49.43
2022-08-22T00:28:39.331Z,49.40
2022-08-22T00:31:10.586Z,49.40
2022-08-22T00:33:48.089Z,49.40
2022-08-22T00:36:43.270Z,49.39
2022-08-22T00:39:17.267Z,49.39
2022-08-22T00:41:56.063Z,49.38
2022-08-22T00:44:47.644Z,49.38
2022-08-22T00:47:36.343Z,49.34
2022-08-22T00:50:30.848Z,49.29
2022-08-22T00:53:16.056Z,49.29
2022-08-22T00:55:55.414Z,49.29
2022-08-22T00:58:27.893Z,49.25
2022-08-22T01:00:57.107Z,49.26
2022-08-22T01:03:33.708Z,49.26
2022-08-22T01:06:34.440Z,49.20
2022-08-22T01:09:33.697Z,49.19
2022-08-22T01:12:15.409Z,49.19
2022-08-22T01:14:54.903Z,49.16
2022-08-22T01:17:49.442Z,49.14
2022-08-22T01:20:37.842Z,49.14
2022-08-22T01:23:40.568Z,49.10
2022-08-22T01:26:26.810Z,49.09
2022-08-22T01:29:13.179Z,49.14
2022-08-22T01:31:59.578Z,49.10
2022-08-22T01:34:44.368Z,49.10
2022-08-22T01:37:23.090Z,49.09
2022-08-22T01:40:12.453Z,49.09
2022-08-22T01:42:47.019Z,49.07
2022-08-22T01:45:35.417Z,49.04
2022-08-22T01:48:11.738Z,49.04
2022-08-22T01:50:46.295Z,49.01
2022-08-22T01:53:44.017Z,49.03
2022-08-22T01:56:21.172Z,49.03
2022-08-22T01:59:10.888Z,49.02
2022-08-22T02:01:50.043Z,49.02
2022-08-22T02:04:31.222Z,49.03
2022-08-22T02:07:07.972Z,48.99
2022-08-22T02:09:43.233Z,48.99
2022-08-22T02:12:42.686Z,48.97
2022-08-22T02:15:20.913Z,48.98
2022-08-22T02:18:05.791Z,48.94
2022-08-22T02:20:47.536Z,48.97
2022-08-22T02:23:35.285Z,48.94
2022-08-22T02:26:01.738Z,48.94
2022-08-22T02:28:57.238Z,48.95
2022-08-22T02:31:45.525Z,48.93
2022-08-22T02:34:24.514Z,48.94
2022-08-22T02:37:23.379Z,48.95
2022-08-22T02:39:55.310Z,48.95
2022-08-22T02:42:28.720Z,48.92
2022-08-22T02:45:22.252Z,48.91
2022-08-22T02:48:13.524Z,48.88
2022-08-22T02:50:58.951Z,48.89
2022-08-22T02:53:52.910Z,48.89
2022-08-22T02:56:27.290Z,48.86
2022-08-22T02:58:59.290Z,48.86
2022-08-22T03:01:33.355Z,48.87
2022-08-22T03:04:15.267Z,48.86
2022-08-22T03:06:46.479Z,48.86
2022-08-22T03:09:16.093Z,48.87
2022-08-22T03:11:45.933Z,48.89
2022-08-22T03:14:27.564Z,48.87
2022-08-22T03:17:12.838Z,48.86
2022-08-22T03:20:04.370Z,48.88
2022-08-22T03:22:44.633Z,48.88
2022-08-22T03:25:38.821Z,48.86
2022-08-22T03:28:10.730Z,48.90
2022-08-22T03:30:45.430Z,48.86
2022-08-22T03:33:19.892Z,48.83
2022-08-22T03:35:46.314Z,48.83
2022-08-22T03:38:23.372Z,48.85
2022-08-22T03:40:56.658Z,48.84
2022-08-22T03:43:39.137Z,48.86
2022-08-22T03:46:41.768Z,48.83
2022-08-22T03:49:33.311Z,48.81
2022-08-22T03:52:13.378Z,48.83
2022-08-22T03:55:02.582Z,48.82
2022-08-22T03:57:38.166Z,48.83
2022-08-22T04:00:18.388Z,48.83
2022-08-22T04:03:11.923Z,48.83
2022-08-22T04:05:43.713Z,48.85
2022-08-22T04:08:32.792Z,48.85
2022-08-22T04:11:21.548Z,48.84
2022-08-22T04:14:08.517Z,48.86
2022-08-22T04:17:00.022Z,48.86
2022-08-22T04:19:48.509Z,48.86
2022-08-22T04:22:52.863Z,48.90
2022-08-22T04:25:25.598Z,48.93
2022-08-22T04:28:05.053Z,48.94
2022-08-22T04:30:54.902Z,48.93
2022-08-22T04:33:28.414Z,48.91
2022-08-22T04:36:26.348Z,48.94
2022-08-22T04:39:05.341Z,48.92
2022-08-22T04:41:49.162Z,48.95
2022-08-22T04:44:35.268Z,48.97
2022-08-22T04:47:20.355Z,48.96
2022-08-22T04:50:08.060Z,48.95
2022-08-22T04:52:52.836Z,48.97
2022-08-22T04:55:26.943Z,49.00
2022-08-22T04:58:15.383Z,49.01
2022-08-22T05:00:55.003Z,49.02
2022-08-22T05:03:21.927Z,49.03
2022-08-22T05:05:48.527Z,49.03
2022-08-22T05:08:19.908Z,49.04
2022-08-22T05:10:48.022Z,49.59
2022-08-22T05:13:29.279Z,50.14
2022-08-22T05:15:58.544Z,50.57
2022-08-22T05:18:34.373Z,51.02
2022-08-22T05:21:03.578Z,51.67
2022-08-22T05:23:38.551Z,51.94
2022-08-22T05:26:06.003Z,52.03
2022-08-22T05:28:38.036Z,52.23
2022-08-22T05:31:09.547Z,52.69
2022-08-22T05:33:47.423Z,53.23
2022-08-22T05:36:21.449Z,53.68
2022-08-22T05:38:54.667Z,53.77
2022-08-22T05:41:25.587Z,54.08
2022-08-22T05:43:52.546Z,54.60
2022-08-22T05:46:44.677Z,54.89
2022-08-22T05:49:22.678Z,54.89
2022-08-22T05:52:01.397Z,54.99
2022-08-22T05:54:33.888Z,55.32
2022-08-22T05:57:27.224Z,55.53
2022-08-22T06:00:22.139Z,55.58
2022-08-22T06:03:16.076Z,55.49
2022-08-22T06:05:44.914Z,55.68
2022-08-22T06:08:20.335Z,55.59
2022-08-22T06:10:48.450Z,55.75
2022-08-22T06:13:21.990Z,56.10
2022-08-22T06:16:07.307Z,56.19
2022-08-22T06:18:36.259Z,56.28
2022-08-22T06:21:04.592Z,56.23
2022-08-22T06:23:47.075Z,56.18
2022-08-22T06:26:20.634Z,56.45
2022-08-22T06:28:55.098Z,56.47
2022-08-22T06:31:44.575Z,56.52
2022-08-22T06:34:25.204Z,56.65
2022-08-22T06:36:51.871Z,56.77
2022-08-22T06:39:35.603Z,57.22
2022-08-22T06:42:14.622Z,57.15
2022-08-22T06:44:52.414Z,57.16
2022-08-22T06:47:23.984Z,57.30
2022-08-22T06:49:56.533Z,57.43
2022-08-22T06:52:24.497Z,57.54
2022-08-22T06:55:00.436Z,57.58
2022-08-22T06:57:43.821Z,57.46
2022-08-22T07:00:12.589Z,57.45
2022-08-22T07:02:47.333Z,57.74
2022-08-22T07:05:21.375Z,57.91
2022-08-22T07:07:47.977Z,58.29
2022-08-22T07:10:14.758Z,58.10
2022-08-22T07:12:49.356Z,57.81
2022-08-22T07:15:36.679Z,57.72
2022-08-22T07:18:11.898Z,57.73
2022-08-22T07:20:41.968Z,57.74
2022-08-22T07:23:10.451Z,57.54
2022-08-22T07:26:00.111Z,57.58
2022-08-22T07:29:01.034Z,57.49
2022-08-22T07:31:48.062Z,57.69
2022-08-22T07:34:38.148Z,58.00
2022-08-22T07:37:09.398Z,57.90
2022-08-22T07:39:43.324Z,57.94
2022-08-22T07:42:18.822Z,58.12
2022-08-22T07:45:00.632Z,58.29
2022-08-22T07:47:36.362Z,58.21
2022-08-22T07:50:06.944Z,57.84
2022-08-22T07:52:39.223Z,57.73
2022-08-22T07:55:24.658Z,57.82
2022-08-22T07:57:56.777Z,57.68
2022-08-22T08:00:23.769Z,57.58
2022-08-22T08:02:55.817Z,57.68
2022-08-22T08:05:24.055Z,57.67
2022-08-22T08:07:52.979Z,57.26
2022-08-22T08:10:23.987Z,57.46
2022-08-22T08:12:52.689Z,57.54
2022-08-22T08:15:28.799Z,57.60
2022-08-22T08:18:06.627Z,57.56
2022-08-22T08:20:42.861Z,57.61
2022-08-22T08:23:25.170Z,57.61
2022-08-22T08:26:05.638Z,57.21
2022-08-22T08:28:34.995Z,56.96
2022-08-22T08:31:07.655Z,57.29
2022-08-22T08:33:36.093Z,56.74
2022-08-22T08:36:19.854Z,57.14
2022-08-22T08:38:55.391Z,57.49
2022-08-22T08:41:22.702Z,57.19
2022-08-22T08:44:08.965Z,56.62
2022-08-22T08:47:06.364Z,56.74
2022-08-22T08:50:11.090Z,56.43
2022-08-22T08:52:49.071Z,55.90
2022-08-22T08:56:04.543Z,55.88
2022-08-22T08:58:52.681Z,55.60
2022-08-22T09:01:37.597Z,55.65
2022-08-22T09:04:28.965Z,55.73
2022-08-22T09:07:22.137Z,55.75
2022-08-22T09:10:16.556Z,55.58
2022-08-22T09:13:24.635Z,55.49
2022-08-22T09:16:04.708Z,55.78
2022-08-22T09:18:57.993Z,55.48
2022-08-22T09:21:47.892Z,55.26
2022-08-22T09:24:36.055Z,55.09
2022-08-22T09:27:11.706Z,55.45
2022-08-22T09:29:54.431Z,55.20
2022-08-22T09:32:34.449Z,55.44
2022-08-22T09:35:26.211Z,54.96
2022-08-22T09:38:14.503Z,54.87
2022-08-22T09:41:14.840Z,54.83
2022-08-22T09:43:45.059Z,54.61
2022-08-22T09:46:32.397Z,54.53
2022-08-22T09:49:05.485Z,54.75
2022-08-22T09:51:43.170Z,54.91
2022-08-22T09:54:49.352Z,54.99
2022-08-22T09:57:19.463Z,55.19
2022-08-22T10:00:15.138Z,55.32
2022-08-22T10:03:11.210Z,55.44
2022-08-22T10:05:46.344Z,55.20
2022-08-22T10:08:33.317Z,55.94
2022-08-22T10:11:07.087Z,56.27
2022-08-22T10:14:08.855Z,56.29
2022-08-22T10:16:57.008Z,56.29
2022-08-22T10:19:42.441Z,55.72
2022-08-22T10:22:15.196Z,56.11
2022-08-22T10:25:07.579Z,55.62
2022-08-22T10:27:40.261Z,55.24
2022-08-22T10:30:10.190Z,55.35
2022-08-22T10:33:15.671Z,55.52
2022-08-22T10:35:51.393Z,55.38
2022-08-22T10:38:25.481Z,55.42
2022-08-22T10:40:59.457Z,55.41
2022-08-22T10:43:45.372Z,55.57
2022-08-22T10:46:13.841Z,55.54
2022-08-22T10:49:08.028Z,55.13
2022-08-22T10:51:49.186Z,55.15
2022-08-22T10:54:28.096Z,55.03
2022-08-22T10:56:59.311Z,55.13
2022-08-22T10:59:57.172Z,55.18
2022-08-22T11:02:54.936Z,55.25
2022-08-22T11:05:36.876Z,55.17
2022-08-22T11:08:52.780Z,55.29
2022-08-22T11:11:34.544Z,54.66
2022-08-22T11:14:12.947Z,55.14
2022-08-22T11:17:27.488Z,54.75
2022-08-22T11:20:19.474Z,54.36
2022-08-22T11:23:08.104Z,54.31
2022-08-22T11:26:00.496Z,54.16
2022-08-22T11:28:46.787Z,54.07
2022-08-22T11:31:23.032Z,53.81
2022-08-22T11:33:58.202Z,53.95
2022-08-22T11:36:27.764Z,53.85
2022-08-22T11:39:09.923Z,53.59
2022-08-22T11:42:11.833Z,53.67
2022-08-22T11:45:05.195Z,52.92
2022-08-22T11:47:45.560Z,52.90
2022-08-22T11:50:25.517Z,52.65
2022-08-22T11:53:26.247Z,53.21
2022-08-22T11:56:42.863Z,52.18
2022-08-22T11:59:43.136Z,51.86
2022-08-22T12:02:51.823Z,51.80
2022-08-22T12:05:30.876Z,51.15
2022-08-22T12:08:07.947Z,51.25
2022-08-22T12:10:59.109Z,51.36
2022-08-22T12:13:45.912Z,51.68
2022-08-22T12:16:34.188Z,52.58
2022-08-22T12:19:17.007Z,53.54
2022-08-22T12:22:24.344Z,54.05
2022-08-22T12:25:02.777Z,54.62
2022-08-22T12:27:48.602Z,54.46
2022-08-22T12:30:27.596Z,54.29
2022-08-22T12:33:06.455Z,54.38
2022-08-22T12:36:09.503Z,54.69
2022-08-22T12:38:57.092Z,54.31
2022-08-22T12:41:51.583Z,54.41
2022-08-22T12:44:21.063Z,54.29
2022-08-22T12:46:52.375Z,54.13
2022-08-22T12:49:42.041Z,54.06
2022-08-22T12:52:35.914Z,53.46
2022-08-22T12:55:16.072Z,53.54
2022-08-22T12:57:53.990Z,52.97
2022-08-22T13:00:30.035Z,52.71
2022-08-22T13:02:56.786Z,52.50
2022-08-22T13:05:27.825Z,52.46
2022-08-22T13:08:04.143Z,52.39
2022-08-22T13:10:37.215Z,52.39
2022-08-22T13:13:12.227Z,52.68
2022-08-22T13:16:03.345Z,53.27
2022-08-22T13:18:36.855Z,53.98
2022-08-22T13:21:05.591Z,54.93
2022-08-22T13:23:39.813Z,55.51
2022-08-22T13:26:31.822Z,55.89
2022-08-22T13:29:26.829Z,56.40
2022-08-22T13:31:59.082Z,56.54
2022-08-22T13:34:43.735Z,57.17
2022-08-22T13:37:20.262Z,57.35
2022-08-22T13:39:52.778Z,57.62
2022-08-22T13:42:27.669Z,57.85
2022-08-22T13:44:59.667Z,58.12
2022-08-22T13:47:35.037Z,59.38
2022-08-22T13:50:10.221Z,59.57
2022-08-22T13:52:43.585Z,60.00
2022-08-22T13:55:31.274Z,59.69
2022-08-22T13:58:00.758Z,60.16
2022-08-22T14:00:57.338Z,60.41
2022-08-22T14:03:49.164Z,60.56
2022-08-22T14:06:41.514Z,59.21
2022-08-22T14:09:32.826Z,58.89
2022-08-22T14:12:26.295Z,59.03
2022-08-22T14:15:00.121Z,58.94
2022-08-22T14:17:44.643Z,59.08
2022-08-22T14:20:33.640Z,58.39
2022-08-22T14:23:06.468Z,58.33
2022-08-22T14:25:37.925Z,59.25
2022-08-22T14:28:09.636Z,60.61
2022-08-22T14:30:39.253Z,61.03
2022-08-22T14:33:17.685Z,62.16
2022-08-22T14:35:52.811Z,60.93
2022-08-22T14:38:30.062Z,63.54
2022-08-22T14:41:14.188Z,62.83
2022-08-22T14:43:57.186Z,63.39
2022-08-22T14:46:49.440Z,63.97
2022-08-22T14:49:18.618Z,63.92
2022-08-22T14:51:50.889Z,62.13
2022-08-22T14:54:21.547Z,64.25
2022-08-22T14:56:48.753Z,64.49
2022-08-22T14:59:39.887Z,63.92
2022-08-22T15:02:14.327Z,64.47
2022-08-22T15:04:42.779Z,64.09
2022-08-22T15:07:09.593Z,65.48
2022-08-22T15:09:44.115Z,63.94
2022-08-22T15:12:40.967Z,64.04
2022-08-22T15:15:14.402Z,63.30
2022-08-22T15:17:50.872Z,64.80
2022-08-22T15:20:38.295Z,65.18
2022-08-22T15:23:17.150Z,65.02
2022-08-22T15:25:47.038Z,65.87
2022-08-22T15:28:20.120Z,65.59
2022-08-22T15:31:03.667Z,64.06
2022-08-22T15:33:36.248Z,63.22
2022-08-22T15:36:20.760Z,62.86
2022-08-22T15:38:48.423Z,62.00
2022-08-22T15:41:37.049Z,61.44
2022-08-22T15:44:18.258Z,60.84
2022-08-22T15:47:02.623Z,60.34
2022-08-22T15:49:35.125Z,59.95
2022-08-22T15:52:01.823Z,59.80
2022-08-22T15:54:46.764Z,59.54
2022-08-22T15:57:28.669Z,59.35
2022-08-22T16:00:00.720Z,59.25
2022-08-22T16:02:40.179Z,59.03
2022-08-22T16:05:10.366Z,58.90
2022-08-22T16:07:45.745Z,58.72
2022-08-22T16:10:13.418Z,58.64
2022-08-22T16:12:45.941Z,58.50
2022-08-22T16:15:54.345Z,58.38
2022-08-22T16:18:39.309Z,58.21
2022-08-22T16:21:39.152Z,58.12
2022-08-22T16:24:05.636Z,58.07
2022-08-22T16:26:41.415Z,57.87
2022-08-22T16:29:14.720Z,57.82
2022-08-22T16:31:44.417Z,57.72
2022-08-22T16:34:16.997Z,57.64
2022-08-22T16:36:46.366Z,57.56
2022-08-22T16:39:22.097Z,57.52
2022-08-22T16:41:57.493Z,57.38
2022-08-22T16:44:30.065Z,57.23
2022-08-22T16:47:16.385Z,57.19
2022-08-22T16:49:49.147Z,57.08
2022-08-22T16:52:24.964Z,57.00
2022-08-22T16:55:02.545Z,57.02
2022-08-22T16:58:05.696Z,56.91
2022-08-22T17:01:03.691Z,56.78
2022-08-22T17:03:49.123Z,56.72
2022-08-22T17:06:36.403Z,56.66
2022-08-22T17:09:21.855Z,56.68
2022-08-22T17:12:13.000Z,56.60
2022-08-22T17:14:58.339Z,56.54
2022-08-22T17:17:47.131Z,56.38
2022-08-22T17:20:38.522Z,56.32
2022-08-22T17:23:32.284Z,56.33
2022-08-22T17:26:11.751Z,56.32
2022-08-22T17:28:49.702Z,56.28
2022-08-22T17:31:25.413Z,56.17
2022-08-22T17:34:05.341Z,56.21
2022-08-22T17:36:49.202Z,56.13
2022-08-22T17:39:32.689Z,56.12
2022-08-22T17:42:08.450Z,56.14
2022-08-22T17:44:55.903Z,56.00
2022-08-22T17:47:30.151Z,56.03
2022-08-22T17:50:41.297Z,55.97
2022-08-22T17:53:16.213Z,55.95
2022-08-22T17:56:04.282Z,55.88
2022-08-22T17:58:43.800Z,55.84
2022-08-22T18:01:50.154Z,55.83
2022-08-22T18:05:13.767Z,55.75
2022-08-22T18:07:57.559Z,55.64
2022-08-22T18:10:46.727Z,55.62
2022-08-22T18:13:31.588Z,55.54
2022-08-22T18:16:01.365Z,55.46
2022-08-22T18:18:46.590Z,55.35
2022-08-22T18:21:19.866Z,55.32
2022-08-22T18:23:51.197Z,55.33
2022-08-22T18:27:01.523Z,55.33
2022-08-22T18:29:48.506Z,55.24
2022-08-22T18:32:33.522Z,55.24
2022-08-22T18:35:03.036Z,55.25
2022-08-22T18:37:34.841Z,55.10
2022-08-22T18:40:13.769Z,55.16
2022-08-22T18:42:50.156Z,55.04
2022-08-22T18:45:44.001Z,55.03
2022-08-22T18:48:28.831Z,55.03
2022-08-22T18:51:23.962Z,55.00
2022-08-22T18:53:55.332Z,54.97
2022-08-22T18:56:24.754Z,54.95
2022-08-22T18:59:05.427Z,54.89
2022-08-22T19:02:10.328Z,54.85
2022-08-22T19:04:55.750Z,54.79
2022-08-22T19:07:45.565Z,54.75
2022-08-22T19:10:18.044Z,54.72
2022-08-22T19:13:20.019Z,54.58
2022-08-22T19:16:07.907Z,54.61
2022-08-22T19:18:53.075Z,54.60
2022-08-22T19:21:45.385Z,54.42
2022-08-22T19:24:20.842Z,54.43
2022-08-22T19:26:48.147Z,54.60
2022-08-22T19:29:17.544Z,54.57
2022-08-22T19:31:55.063Z,54.44
2022-08-22T19:34:30.882Z,54.40
2022-08-22T19:37:32.703Z,54.33
2022-08-22T19:40:05.515Z,54.41
2022-08-22T19:42:34.265Z,54.41
2022-08-22T19:45:08.671Z,54.50
2022-08-22T19:47:41.960Z,54.37
2022-08-22T19:50:16.072Z,54.46
2022-08-22T19:53:11.214Z,54.28
2022-08-22T19:55:37.695Z,54.28
2022-08-22T19:58:16.442Z,54.33
2022-08-22T20:00:48.382Z,54.34
2022-08-22T20:03:48.879Z,54.33
2022-08-22T20:06:45.085Z,54.23
2022-08-22T20:09:20.853Z,54.20
2022-08-22T20:12:06.021Z,54.15
2022-08-22T20:14:37.296Z,54.28
2022-08-22T20:17:25.192Z,54.21
2022-08-22T20:22:47.080Z,54.10
2022-08-22T20:25:42.527Z,54.29
2022-08-22T20:28:29.703Z,54.23
2022-08-22T20:31:01.606Z,54.10
2022-08-22T20:33:37.182Z,54.03
2022-08-22T20:36:06.639Z,54.01
2022-08-22T20:38:55.630Z,54.33
2022-08-22T20:41:37.381Z,53.95
2022-08-22T20:44:30.707Z,54.17
2022-08-22T20:47:07.390Z,54.04
2022-08-22T20:49:44.862Z,53.96
2022-08-22T20:52:30.054Z,53.92
2022-08-22T20:55:12.681Z,54.40
2022-08-22T20:57:48.575Z,54.27
2022-08-22T21:00:18.655Z,54.15
2022-08-22T21:03:01.897Z,54.13
2022-08-22T21:05:36.739Z,54.43
2022-08-22T21:08:22.536Z,53.95
2022-08-22T21:11:18.683Z,54.25
2022-08-22T21:13:45.271Z,53.92
2022-08-22T21:16:13.611Z,54.22
2022-08-22T21:18:45.778Z,54.40
2022-08-22T21:21:25.094Z,54.34
2022-08-22T21:24:00.381Z,54.25
2022-08-22T21:26:28.227Z,54.18
2022-08-22T21:29:33.791Z,54.33
2022-08-22T21:32:09.480Z,54.15
2022-08-22T21:34:41.004Z,54.22
2022-08-22T21:37:27.018Z,54.11
2022-08-22T21:40:16.916Z,54.22
2022-08-22T21:42:45.946Z,54.27
2022-08-22T21:45:41.221Z,54.18
2022-08-22T21:48:33.960Z,53.97
2022-08-22T21:51:39.539Z,54.13
2022-08-22T21:54:25.011Z,54.12
2022-08-22T21:56:56.143Z,54.18
2022-08-22T21:59:25.668Z,54.01
2022-08-22T22:01:53.167Z,53.76
2022-08-22T22:04:22.087Z,54.02
2022-08-22T22:06:48.688Z,53.92
2022-08-22T22:09:15.435Z,54.06
2022-08-22T22:11:42.031Z,53.98
2022-08-22T22:14:08.705Z,54.00
2022-08-22T22:16:35.303Z,53.63
2022-08-22T22:19:01.929Z,53.89
2022-08-22T22:21:28.725Z,54.01
2022-08-22T22:23:56.424Z,53.97
2022-08-22T22:26:25.500Z,53.93
2022-08-22T22:28:52.960Z,53.97
2022-08-22T22:31:19.557Z,53.92
2022-08-22T22:33:46.219Z,54.00
2022-08-22T22:36:18.703Z,53.82
2022-08-22T22:38:45.307Z,53.83
2022-08-22T22:41:12.300Z,53.89
2022-08-22T22:43:38.916Z,53.60
2022-08-22T22:46:05.588Z,53.64
2022-08-22T22:48:32.709Z,53.66
2022-08-22T22:50:59.319Z,53.90
2022-08-22T22:53:33.833Z,53.42
2022-08-22T22:56:05.903Z,53.71
2022-08-22T22:58:33.398Z,53.53
2022-08-22T23:01:12.748Z,53.72
2022-08-22T23:03:39.471Z,53.55
2022-08-22T23:06:13.319Z,53.65
2022-08-22T23:08:40.011Z,53.71
2022-08-22T23:11:18.534Z,53.63
2022-08-22T23:13:45.457Z,53.59
2022-08-22T23:16:14.448Z,53.27
2022-08-22T23:18:41.521Z,53.61
2022-08-22T23:21:18.847Z,53.63
2022-08-22T23:23:45.780Z,53.68
2022-08-22T23:26:12.697Z,53.56
2022-08-22T23:28:39.578Z,53.63
2022-08-22T23:31:14.139Z,53.64
2022-08-22T23:33:40.799Z,53.56
2022-08-22T23:36:17.747Z,53.58
2022-08-22T23:38:44.491Z,53.62
2022-08-22T23:41:11.953Z,53.64
2022-08-22T23:43:41.747Z,53.55
2022-08-22T23:46:08.320Z,53.56
2022-08-22T23:48:34.907Z,53.66
2022-08-22T23:51:01.572Z,53.66
2022-08-22T23:53:29.051Z,53.36
2022-08-22T23:55:55.979Z,53.66
2022-08-22T23:58:22.779Z,53.62
